Time;durP1;ratioP1;P1;durP2;ratioP2;P2;SDS_P1;SDS_P2;PMS_P1;PMS_P2;Temp;Humidity;BMP_temperature;BMP_pressure;BME280_temperature;BME280_humidity;BME280_pressure;Samples;Min_cycle;Max_cycle;Signal;HPM_P1;HPM_P2
2022/06/04 00:02:46;;;;;;;2.15;0.98;;;22.20;44.80;21.20;101538.00;;;;5042692;28;20407;-70
2022/06/04 00:05:36;;;;;;;1.17;1.02;;;22.20;44.80;21.20;101537.00;;;;5046432;28;20107;-71
2022/06/04 00:08:22;;;;;;;1.10;0.98;;;22.20;44.70;21.20;101535.00;;;;5039853;28;20028;-70
2022/06/04 00:17:17;;;;;;;1.45;0.65;;;22.20;44.80;21.20;101530.00;;;;5049544;28;20041;-70
2022/06/04 00:20:04;;;;;;;1.83;1.08;;;22.20;44.90;21.20;101535.00;;;;5052134;28;20040;-70
2022/06/04 00:22:50;;;;;;;0.68;0.60;;;22.10;44.80;21.20;101533.00;;;;5054464;28;20099;-71
2022/06/04 00:25:38;;;;;;;3.13;1.05;;;22.20;44.90;21.20;101536.00;;;;5051992;28;20549;-70
2022/06/04 00:28:25;;;;;;;1.92;0.95;;;22.10;44.80;21.20;101537.00;;;;5035460;28;20137;-70
2022/06/04 00:31:11;;;;;;;2.58;1.08;;;22.10;44.80;21.20;101538.00;;;;5050079;28;20048;-71
2022/06/04 00:33:57;;;;;;;1.60;0.85;;;22.10;44.90;21.20;101530.00;;;;5044718;28;20040;-70
2022/06/04 00:36:43;;;;;;;1.13;1.00;;;22.10;44.90;21.20;101535.00;;;;5042276;28;20044;-70
2022/06/04 00:39:29;;;;;;;1.85;1.00;;;22.10;44.90;21.20;101534.00;;;;5044768;28;20490;-71
2022/06/04 00:42:18;;;;;;;2.15;1.27;;;22.10;44.90;21.20;101530.00;;;;5048943;28;20045;-71
2022/06/04 00:45:36;;;;;;;1.27;0.88;;;22.10;44.90;21.10;101526.00;;;;5026998;28;20040;-71
2022/06/04 00:48:22;;;;;;;2.00;0.88;;;22.10;44.90;21.20;101524.00;;;;5047550;28;20083;-70
2022/06/04 00:51:08;;;;;;;1.85;1.17;;;22.10;45.00;21.10;101527.00;;;;5024038;28;20107;-71
2022/06/04 00:53:54;;;;;;;1.60;1.15;;;22.10;45.00;21.20;101521.00;;;;5039507;28;20036;-71
2022/06/04 00:57:10;;;;;;;3.08;1.00;;;22.10;45.00;21.10;101520.00;;;;5046932;28;20438;-70
2022/06/04 01:00:15;;;;;;;3.15;1.20;;;22.10;45.00;21.10;101514.00;;;;5075255;28;20097;-71
2022/06/04 01:03:29;;;;;;;2.67;0.90;;;22.10;45.00;21.10;101518.00;;;;5038595;28;20052;-70
2022/06/04 01:06:42;;;;;;;2.20;1.35;;;22.10;45.00;21.10;101527.00;;;;5060790;28;20067;-70
2022/06/04 01:09:59;;;;;;;1.00;0.90;;;22.10;45.00;21.10;101530.00;;;;5075956;28;20070;-71
2022/06/04 01:12:55;;;;;;;4.20;1.40;;;22.10;45.00;21.10;101529.00;;;;5059930;28;20051;-70
2022/06/04 01:16:03;;;;;;;4.32;1.20;;;22.10;45.00;21.10;101518.00;;;;5044709;28;20429;-71
2022/06/04 01:19:40;;;;;;;1.20;1.05;;;22.10;45.10;21.10;101533.00;;;;5046621;28;20045;-70
2022/06/04 01:23:00;;;;;;;1.70;1.10;;;22.00;45.00;21.10;101528.00;;;;5047393;28;20049;-70
2022/06/04 01:26:31;;;;;;;3.97;1.20;;;22.00;45.10;21.10;101532.00;;;;5061462;28;20044;-70
2022/06/04 01:29:21;;;;;;;4.28;1.30;;;22.00;45.00;21.10;101531.00;;;;5072272;28;20040;-70
2022/06/04 01:32:21;;;;;;;2.72;1.00;;;22.00;45.10;21.10;101537.00;;;;5038168;28;20032;-70
2022/06/04 01:35:17;;;;;;;2.13;1.40;;;22.00;45.10;21.10;101545.00;;;;5045928;28;20382;-70
2022/06/04 01:38:25;;;;;;;1.73;1.20;;;22.00;45.20;21.10;101549.00;;;;5064099;28;20032;-71
2022/06/04 01:41:33;;;;;;;3.45;1.15;;;22.00;45.20;21.10;101555.00;;;;5048073;28;20187;-70
2022/06/04 01:44:32;;;;;;;1.73;1.05;;;22.00;45.20;21.10;101559.00;;;;5063481;28;20048;-70
2022/06/04 01:47:19;;;;;;;1.42;1.10;;;22.00;45.20;21.10;101563.00;;;;5047092;28;20037;-71
2022/06/04 01:50:08;;;;;;;2.35;1.30;;;22.00;45.20;21.10;101562.00;;;;5046003;28;20044;-70
2022/06/04 01:52:54;;;;;;;1.58;1.17;;;22.00;45.20;21.10;101551.00;;;;5048194;28;20037;-71
2022/06/04 01:55:52;;;;;;;3.03;1.30;;;22.00;45.20;21.10;101551.00;;;;5048305;28;20174;-71
2022/06/04 01:58:54;;;;;;;1.33;1.10;;;22.00;45.20;21.10;101555.00;;;;5061225;28;20037;-70
2022/06/04 02:01:40;;;;;;;2.08;1.27;;;22.00;45.20;21.10;101571.00;;;;5064784;28;20044;-70
2022/06/04 02:04:30;;;;;;;1.85;1.08;;;22.00;45.20;21.10;101586.00;;;;5049442;28;20051;-71
2022/06/04 02:07:32;;;;;;;2.08;1.50;;;22.00;45.20;21.10;101581.00;;;;5046994;28;20098;-71
2022/06/04 02:10:52;;;;;;;4.60;1.30;;;22.00;45.20;21.00;101591.00;;;;5059903;28;20052;-70
2022/06/04 02:13:38;;;;;;;2.40;1.15;;;22.00;45.20;21.10;101604.00;;;;5066456;28;20044;-70
2022/06/04 02:16:45;;;;;;;3.67;1.50;;;22.00;45.10;21.00;101600.00;;;;5048838;28;20500;-71
2022/06/04 02:19:31;;;;;;;2.42;1.13;;;22.00;45.10;21.10;101587.00;;;;5050095;28;20049;-70
2022/06/04 02:22:17;;;;;;;2.17;1.33;;;22.00;45.10;21.10;101581.00;;;;5051230;28;20099;-71
2022/06/04 02:25:06;;;;;;;2.55;1.20;;;22.00;45.10;21.10;101591.00;;;;5045506;28;20044;-70
2022/06/04 02:27:52;;;;;;;3.15;1.30;;;22.00;45.10;21.10;101580.00;;;;5047870;28;20457;-71
2022/06/04 02:31:10;;;;;;;2.33;1.40;;;22.00;45.10;21.10;101587.00;;;;5048061;28;20045;-71
2022/06/04 02:34:14;;;;;;;2.10;1.42;;;21.90;45.00;21.10;101585.00;;;;5055728;28;20488;-70
2022/06/04 02:37:13;;;;;;;2.78;1.40;;;22.00;45.80;21.10;101591.00;;;;5052667;28;20497;-71
2022/06/04 02:40:29;;;;;;;1.75;1.30;;;22.00;45.10;21.10;101586.00;;;;5048367;28;20044;-71
2022/06/04 02:43:44;;;;;;;2.25;1.20;;;22.00;45.10;21.10;101575.00;;;;5054131;28;20409;-71
2022/06/04 02:46:35;;;;;;;1.88;1.10;;;22.00;45.10;21.10;101570.00;;;;5049903;28;20036;-71
2022/06/04 02:49:45;;;;;;;1.77;1.08;;;22.00;45.10;21.10;101565.00;;;;5063524;28;20093;-70
2022/06/04 02:52:32;;;;;;;3.13;1.42;;;22.00;45.10;21.10;101568.00;;;;5039561;28;20430;-70
2022/06/04 02:55:25;;;;;;;2.75;1.00;;;22.00;45.20;21.10;101557.00;;;;5046700;28;20039;-71
2022/06/04 02:58:14;;;;;;;4.10;1.08;;;22.00;45.20;21.10;101555.00;;;;5062910;28;20102;-71
2022/06/04 03:01:00;;;;;;;1.77;1.40;;;22.00;45.20;21.10;101565.00;;;;5054129;28;20133;-70
2022/06/04 03:03:46;;;;;;;2.53;1.45;;;21.90;45.20;21.10;101566.00;;;;5045012;28;20040;-71
2022/06/04 03:06:32;;;;;;;2.30;1.42;;;21.90;45.20;21.10;101575.00;;;;5053413;28;20437;-71
2022/06/04 03:09:18;;;;;;;1.40;1.15;;;22.00;45.30;21.10;101566.00;;;;5082153;28;20111;-70
2022/06/04 03:12:06;;;;;;;2.03;1.27;;;22.00;45.30;21.10;101564.00;;;;5048648;28;20043;-71
2022/06/04 03:14:52;;;;;;;2.47;1.50;;;21.90;45.20;21.00;101556.00;;;;5061683;28;20040;-71
2022/06/04 03:17:39;;;;;;;1.50;1.40;;;21.90;45.20;21.10;101562.00;;;;5059199;28;20055;-71
2022/06/04 03:20:27;;;;;;;2.05;1.10;;;21.90;45.30;21.10;101550.00;;;;5072847;28;20123;-71
2022/06/04 03:23:13;;;;;;;2.30;1.25;;;22.00;45.40;21.10;101561.00;;;;5066854;28;20041;-71
2022/06/04 03:25:59;;;;;;;1.98;1.25;;;22.00;45.30;21.00;101561.00;;;;5064353;28;20133;-71
2022/06/04 03:28:45;;;;;;;2.70;1.10;;;22.00;46.00;21.00;101551.00;;;;5061891;28;20044;-71
2022/06/04 03:31:31;;;;;;;1.23;1.13;;;21.90;45.30;21.00;101542.00;;;;5049230;28;20110;-71
2022/06/04 03:34:17;;;;;;;1.13;1.00;;;21.90;45.30;21.00;101548.00;;;;5053277;28;20071;-71
2022/06/04 03:37:03;;;;;;;2.28;1.15;;;21.90;45.30;21.00;101539.00;;;;5048800;28;20037;-71
2022/06/04 03:39:50;;;;;;;1.27;0.93;;;21.90;45.30;21.00;101542.00;;;;5066979;28;20048;-71
2022/06/04 03:42:36;;;;;;;2.97;1.30;;;21.90;45.30;21.00;101544.00;;;;5062811;28;20569;-71
2022/06/04 03:45:24;;;;;;;1.83;1.20;;;21.90;45.40;21.00;101562.00;;;;5063140;28;20518;-70
2022/06/04 03:48:11;;;;;;;4.22;1.38;;;21.90;45.40;21.00;101557.00;;;;5076653;28;20041;-70
2022/06/04 03:50:57;;;;;;;2.25;1.27;;;21.90;45.40;21.00;101561.00;;;;5063418;28;20049;-70
2022/06/04 03:53:43;;;;;;;3.42;1.33;;;21.90;45.40;21.00;101551.00;;;;5059193;28;20513;-70
2022/06/04 03:56:29;;;;;;;3.08;1.50;;;21.90;45.40;21.00;101546.00;;;;5072283;28;20044;-70
2022/06/04 03:59:15;;;;;;;3.45;1.30;;;21.90;45.40;21.00;101539.00;;;;5064855;28;20048;-70
2022/06/04 04:02:01;;;;;;;2.45;1.20;;;21.90;45.40;21.00;101547.00;;;;5058805;28;20056;-70
2022/06/04 04:04:47;;;;;;;1.58;1.10;;;21.90;45.40;21.00;101557.00;;;;5065859;28;20429;-71
2022/06/04 04:07:33;;;;;;;3.03;1.38;;;21.90;45.50;21.00;101555.00;;;;5058991;28;20041;-71
2022/06/04 04:10:19;;;;;;;2.25;1.17;;;21.90;45.40;21.00;101561.00;;;;5059203;28;20045;-70
2022/06/04 04:13:05;;;;;;;2.22;1.48;;;21.90;45.50;21.00;101570.00;;;;5047947;28;20041;-71
2022/06/04 04:15:52;;;;;;;1.77;1.33;;;21.90;45.40;21.00;101575.00;;;;5066962;28;20044;-71
2022/06/04 04:18:38;;;;;;;2.05;1.27;;;21.90;45.50;21.00;101576.00;;;;5057077;28;20043;-70
2022/06/04 04:21:24;;;;;;;1.55;1.30;;;21.80;45.40;21.00;101578.00;;;;5047367;28;20401;-70
2022/06/04 04:24:10;;;;;;;1.75;1.45;;;21.90;45.40;21.00;101579.00;;;;5063016;28;20051;-71
2022/06/04 04:26:56;;;;;;;2.83;1.30;;;21.90;45.50;21.00;101572.00;;;;5059878;28;20041;-70
2022/06/04 04:29:42;;;;;;;3.25;1.65;;;21.90;45.50;21.00;101566.00;;;;5064823;28;20119;-70
2022/06/04 04:32:28;;;;;;;1.80;1.30;;;21.90;45.50;21.00;101569.00;;;;5059553;28;20442;-71
2022/06/04 04:35:20;;;;;;;1.65;1.00;;;21.90;45.50;21.00;101573.00;;;;5061269;28;20029;-70
2022/06/04 04:38:07;;;;;;;1.88;1.00;;;21.90;45.60;21.00;101562.00;;;;5075501;28;20044;-71
2022/06/04 04:40:53;;;;;;;1.77;1.33;;;21.90;45.50;21.00;101565.00;;;;5057784;28;20048;-71
2022/06/04 04:43:39;;;;;;;2.63;1.40;;;21.90;45.50;21.00;101572.00;;;;5059017;28;20065;-71
2022/06/04 04:46:25;;;;;;;1.90;1.42;;;21.90;45.50;21.00;101573.00;;;;5057674;28;20040;-70
2022/06/04 04:49:11;;;;;;;4.82;1.83;;;21.90;46.20;21.00;101577.00;;;;5064322;28;20048;-71
2022/06/04 04:51:58;;;;;;;3.20;1.50;;;21.90;45.50;21.00;101570.00;;;;5060056;28;20037;-71
2022/06/04 04:54:44;;;;;;;2.57;1.47;;;21.90;45.50;21.00;101570.00;;;;5061374;28;20044;-71
2022/06/04 04:57:30;;;;;;;1.80;1.40;;;21.90;45.50;21.00;101570.00;;;;5059343;28;20086;-70
2022/06/04 05:00:17;;;;;;;1.88;1.52;;;21.90;45.50;21.00;101577.00;;;;5064479;28;20048;-71
2022/06/04 05:03:03;;;;;;;2.42;1.20;;;21.90;45.50;21.00;101574.00;;;;5048610;28;20047;-71
2022/06/04 05:05:59;;;;;;;2.80;1.52;;;21.90;45.50;21.00;101573.00;;;;5064425;28;20064;-71
2022/06/04 05:08:46;;;;;;;2.10;1.30;;;21.90;45.50;21.00;101581.00;;;;5060450;28;20037;-70
2022/06/04 05:11:32;;;;;;;2.60;1.70;;;21.90;45.40;21.00;101568.00;;;;5045257;28;20044;-71
2022/06/04 05:14:19;;;;;;;2.05;1.80;;;21.90;45.40;21.00;101574.00;;;;5050043;28;20068;-70
2022/06/04 05:17:05;;;;;;;2.15;1.40;;;21.90;45.40;21.00;101573.00;;;;5058668;28;20436;-70
2022/06/04 05:19:51;;;;;;;2.67;1.60;;;21.90;45.40;21.00;101576.00;;;;5061563;28;20379;-70
2022/06/04 05:22:38;;;;;;;4.18;1.65;;;21.90;45.50;21.00;101571.00;;;;5071316;28;20072;-71
2022/06/04 05:25:24;;;;;;;3.22;1.83;;;21.90;45.50;21.00;101577.00;;;;5048336;28;20032;-71
2022/06/04 05:28:10;;;;;;;4.15;1.70;;;21.90;45.40;21.00;101585.00;;;;5062438;28;20090;-70
2022/06/04 05:30:56;;;;;;;2.22;2.00;;;21.90;45.50;21.00;101594.00;;;;5062274;28;20479;-70
2022/06/04 05:33:42;;;;;;;1.95;1.55;;;21.90;45.50;21.00;101603.00;;;;5061458;28;20055;-71
2022/06/04 05:36:31;;;;;;;3.15;1.80;;;21.90;45.40;21.00;101612.00;;;;5060097;28;20493;-71
2022/06/04 05:39:17;;;;;;;1.88;1.58;;;21.90;45.50;21.00;101609.00;;;;5063297;28;20072;-70
2022/06/04 05:42:04;;;;;;;2.70;1.42;;;21.90;45.50;21.00;101613.00;;;;5060289;28;20044;-70
2022/06/04 05:44:51;;;;;;;2.77;1.60;;;21.90;45.50;21.00;101606.00;;;;5079674;28;20409;-70
2022/06/04 05:47:37;;;;;;;2.58;1.65;;;21.90;45.50;21.00;101613.00;;;;5043111;28;20042;-71
2022/06/04 05:50:23;;;;;;;4.00;1.67;;;21.90;45.50;21.00;101619.00;;;;5059383;28;20113;-71
2022/06/04 05:53:09;;;;;;;3.13;1.42;;;21.90;45.50;21.00;101617.00;;;;5059021;28;20044;-71
2022/06/04 05:55:55;;;;;;;3.28;1.63;;;21.90;45.50;21.00;101620.00;;;;5060634;28;20044;-71
2022/06/04 05:58:42;;;;;;;3.33;2.00;;;21.90;45.50;21.00;101616.00;;;;5073380;28;20101;-70
2022/06/04 06:01:29;;;;;;;3.03;1.85;;;21.90;45.50;21.00;101619.00;;;;5056088;28;20037;-71
2022/06/04 06:04:16;;;;;;;2.33;1.70;;;21.90;45.50;21.00;101622.00;;;;5054299;28;20043;-71
2022/06/04 06:07:03;;;;;;;1.98;1.63;;;21.90;45.50;21.00;101617.00;;;;5047896;28;20048;-71
2022/06/04 06:09:49;;;;;;;3.85;1.70;;;22.00;45.60;21.00;101624.00;;;;5062783;28;20398;-72
2022/06/04 06:12:35;;;;;;;3.53;1.90;;;21.90;45.50;21.00;101640.00;;;;5055313;28;20047;-71
2022/06/04 06:15:21;;;;;;;3.13;1.80;;;21.90;45.50;21.00;101640.00;;;;5057347;28;20045;-71
2022/06/04 06:18:07;;;;;;;2.33;2.10;;;22.00;45.60;21.00;101644.00;;;;5060701;28;20401;-71
2022/06/04 06:20:53;;;;;;;3.30;1.92;;;21.90;45.60;21.00;101639.00;;;;5047078;28;20083;-71
2022/06/04 06:23:39;;;;;;;1.92;1.60;;;22.00;45.60;21.00;101640.00;;;;5058842;28;20045;-72
2022/06/04 06:26:30;;;;;;;2.17;1.90;;;21.90;45.60;21.00;101644.00;;;;5031658;28;20040;-70
2022/06/04 06:29:17;;;;;;;2.28;1.70;;;21.90;45.60;21.00;101651.00;;;;5075276;28;20143;-71
2022/06/04 06:32:05;;;;;;;2.47;1.65;;;22.00;45.70;21.00;101655.00;;;;5059240;28;20482;-70
2022/06/04 06:34:51;;;;;;;3.27;2.00;;;22.00;45.70;21.00;101660.00;;;;5057361;28;20041;-71
2022/06/04 06:37:37;;;;;;;1.83;1.58;;;22.00;45.70;21.00;101664.00;;;;5057627;28;20092;-71
2022/06/04 06:40:23;;;;;;;2.75;1.58;;;22.00;45.70;21.00;101668.00;;;;5055033;28;20095;-71
2022/06/04 06:43:09;;;;;;;3.28;1.63;;;21.90;45.60;21.00;101667.00;;;;5075940;28;20044;-71
2022/06/04 06:46:10;;;;;;;1.70;1.55;;;21.90;45.70;21.00;101664.00;;;;5066675;28;20474;-71
2022/06/04 06:49:32;;;;;;;1.58;1.40;;;21.90;45.70;21.00;101665.00;;;;5051985;28;20043;-71
2022/06/04 06:52:20;;;;;;;2.00;1.67;;;22.00;45.70;21.00;101663.00;;;;5053025;28;20067;-71
2022/06/04 06:55:07;;;;;;;;;;;22.00;45.70;20.90;101672.00;;;;5061464;28;20053;-71
2022/06/04 06:57:53;;;;;;;3.03;2.08;;;22.00;45.70;20.90;101667.00;;;;5061388;28;19920;-71
2022/06/04 07:00:39;;;;;;;3.72;1.70;;;22.00;45.50;21.00;101663.00;;;;5063784;28;20045;-71
2022/06/04 07:03:25;;;;;;;2.35;1.95;;;22.00;45.60;21.00;101666.00;;;;5045291;28;20512;-71
2022/06/04 07:06:12;;;;;;;2.10;1.88;;;22.00;45.60;21.00;101660.00;;;;5057169;28;20043;-71
2022/06/04 07:08:58;;;;;;;2.35;1.90;;;21.90;45.60;20.90;101658.00;;;;5051845;28;20120;-71
2022/06/04 07:11:44;;;;;;;2.15;1.70;;;22.00;45.70;21.00;101660.00;;;;5060301;28;20497;-71
2022/06/04 07:14:30;;;;;;;2.80;2.00;;;22.00;45.70;21.00;101663.00;;;;5062572;28;20149;-71
2022/06/04 07:17:16;;;;;;;3.92;1.52;;;22.00;45.70;21.00;101654.00;;;;5062422;28;21190;-70
2022/06/04 07:20:03;;;;;;;2.70;1.40;;;22.00;45.70;21.00;101668.00;;;;5046746;28;20053;-70
2022/06/04 07:22:50;;;;;;;2.00;1.73;;;22.00;45.70;21.00;101656.00;;;;5065112;28;20115;-71
2022/06/04 07:25:37;;;;;;;3.40;2.05;;;22.00;45.70;21.00;101648.00;;;;5066828;28;20045;-71
2022/06/04 07:28:23;;;;;;;4.55;2.15;;;22.00;45.80;21.00;101656.00;;;;5049275;28;20147;-71
2022/06/04 07:31:10;;;;;;;2.47;1.83;;;22.00;45.70;21.00;101659.00;;;;5057781;28;20037;-71
2022/06/04 07:33:58;;;;;;;4.32;2.00;;;22.00;45.70;21.00;101656.00;;;;5065463;28;20257;-71
2022/06/04 07:36:44;;;;;;;3.03;2.00;;;22.00;45.70;21.00;101667.00;;;;5046836;28;20193;-71
2022/06/04 07:39:30;;;;;;;2.95;1.95;;;22.00;45.70;21.00;101665.00;;;;5065913;28;20040;-70
2022/06/04 07:42:16;;;;;;;2.20;1.90;;;22.00;45.70;21.00;101666.00;;;;5060807;28;20569;-71
2022/06/04 07:45:04;;;;;;;4.53;1.83;;;22.00;46.50;21.00;101671.00;;;;5065279;28;20398;-71
2022/06/04 07:47:50;;;;;;;3.05;1.73;;;22.00;45.80;21.00;101674.00;;;;5065228;28;20036;-71
2022/06/04 07:50:39;;;;;;;4.78;1.95;;;22.00;45.70;21.00;101674.00;;;;5064093;28;20037;-71
2022/06/04 07:53:25;;;;;;;3.72;1.98;;;22.00;45.70;21.00;101676.00;;;;5045043;28;20044;-71
2022/06/04 07:56:14;;;;;;;2.28;1.92;;;22.00;45.80;21.00;101682.00;;;;5065370;28;20413;-71
2022/06/04 07:59:00;;;;;;;4.10;1.80;;;22.00;45.80;21.00;101674.00;;;;5049973;28;20044;-71
2022/06/04 08:01:46;;;;;;;2.70;1.65;;;22.00;45.80;21.00;101664.00;;;;5044358;28;20494;-71
2022/06/04 08:04:32;;;;;;;3.83;1.75;;;22.00;45.80;21.00;101670.00;;;;5061195;28;20072;-71
2022/06/04 08:07:18;;;;;;;3.97;1.83;;;22.00;45.80;21.00;101666.00;;;;5064843;28;20123;-71
2022/06/04 08:10:05;;;;;;;2.13;1.70;;;22.00;45.80;21.00;101664.00;;;;5047653;28;20150;-71
2022/06/04 08:12:54;;;;;;;3.28;2.05;;;22.00;45.80;21.00;101668.00;;;;5047329;28;20137;-70
2022/06/04 08:15:42;;;;;;;3.08;2.17;;;22.00;45.80;21.00;101682.00;;;;5063719;28;20040;-71
2022/06/04 08:18:28;;;;;;;4.78;2.15;;;22.00;45.80;21.00;101672.00;;;;5061380;28;20052;-71
2022/06/04 08:21:15;;;;;;;3.50;1.92;;;22.10;45.90;21.00;101677.00;;;;5057065;28;20044;-71
2022/06/04 08:24:02;;;;;;;2.20;1.85;;;22.10;45.90;21.00;101675.00;;;;5050595;28;20047;-71
2022/06/04 08:26:53;;;;;;;4.40;2.22;;;22.10;45.90;21.00;101665.00;;;;5039169;28;20475;-71
2022/06/04 08:29:39;;;;;;;9.07;2.83;;;22.00;45.80;21.00;101681.00;;;;5038056;28;20036;-71
2022/06/04 08:32:25;;;;;;;8.60;2.35;;;22.10;45.70;21.00;101678.00;;;;5067480;28;20040;-71
2022/06/04 08:35:11;;;;;;;11.65;2.63;;;22.10;45.80;21.00;101683.00;;;;5061737;28;20063;-71
2022/06/04 08:37:57;;;;;;;14.68;3.30;;;22.00;45.70;21.00;101680.00;;;;5060193;28;20036;-71
2022/06/04 08:40:52;;;;;;;9.38;2.50;;;22.10;45.80;21.00;101683.00;;;;5068909;28;20115;-74
2022/06/04 08:43:58;;;;;;;8.32;2.63;;;22.10;45.80;21.00;101679.00;;;;5063915;28;20500;-74
2022/06/04 08:47:02;;;;;;;5.90;2.50;;;22.10;45.80;21.00;101693.00;;;;5046653;28;20090;-74
2022/06/04 08:50:03;;;;;;;9.48;3.17;;;22.10;45.90;21.00;101693.00;;;;5047450;28;20506;-74
2022/06/04 08:52:54;;;;;;;5.25;2.75;;;22.10;45.90;21.00;101701.00;;;;5054341;28;20064;-72
2022/06/04 08:59:06;;;;;;;4.05;2.67;;;22.10;46.00;21.00;101701.00;;;;5061876;28;20109;-72
2022/06/04 09:01:57;;;;;;;4.88;2.58;;;22.10;46.00;21.00;101699.00;;;;5045029;28;20053;-72
2022/06/04 09:05:25;;;;;;;5.97;2.60;;;22.10;46.00;21.00;101699.00;;;;5056935;28;20588;-73
2022/06/04 09:08:18;;;;;;;4.07;2.75;;;22.10;46.10;21.00;101699.00;;;;5057916;28;20121;-72
2022/06/04 09:11:10;;;;;;;3.90;2.50;;;22.10;46.20;21.00;101695.00;;;;5048250;28;20048;-72
2022/06/04 09:14:30;;;;;;;4.03;2.30;;;22.10;46.10;21.00;101703.00;;;;5046644;28;20123;-72
2022/06/04 09:17:21;;;;;;;4.28;2.75;;;22.10;46.20;21.00;101698.00;;;;5050686;28;20136;-73
2022/06/04 09:20:41;;;;;;;7.30;3.05;;;22.20;46.20;21.00;101705.00;;;;5029813;28;20048;-73
2022/06/04 09:23:36;;;;;;;3.92;2.42;;;22.20;46.20;21.00;101700.00;;;;5064135;28;20539;-72
2022/06/04 09:26:51;;;;;;;5.93;2.85;;;22.10;46.30;21.00;101693.00;;;;5058538;28;20655;-72
2022/06/04 09:30:01;;;;;;;4.13;2.58;;;22.20;46.30;21.00;101699.00;;;;5044333;28;20048;-72
2022/06/04 09:33:02;;;;;;;6.05;2.92;;;22.20;46.30;21.00;101702.00;;;;5048867;28;20048;-72
2022/06/04 09:35:48;;;;;;;6.00;2.42;;;22.20;46.40;21.00;101709.00;;;;5065481;28;20048;-72
2022/06/04 09:38:35;;;;;;;5.78;2.45;;;22.20;46.40;21.10;101709.00;;;;5045886;28;20040;-72
2022/06/04 09:41:23;;;;;;;4.00;2.30;;;22.20;46.30;21.10;101700.00;;;;5043061;28;20568;-73
2022/06/04 09:44:15;;;;;;;5.88;2.17;;;22.20;46.30;21.10;101703.00;;;;5060786;28;20040;-72
2022/06/04 09:47:19;;;;;;;9.48;2.60;;;22.20;46.30;21.10;101704.00;;;;5044292;28;20074;-72
2022/06/04 09:50:34;;;;;;;5.03;2.35;;;22.50;46.50;21.10;101711.00;;;;5048461;28;20041;-71
2022/06/04 09:53:25;;;;;;;10.02;2.85;;;22.20;46.30;21.10;101712.00;;;;5058868;28;20072;-71
2022/06/04 09:56:16;;;;;;;4.90;2.45;;;22.20;46.30;21.10;101715.00;;;;5030458;28;20045;-71
2022/06/04 09:59:24;;;;;;;4.28;2.50;;;22.20;47.00;21.10;101713.00;;;;5043359;28;20037;-72
2022/06/04 10:02:10;;;;;;;5.93;2.42;;;22.20;46.40;21.10;101709.00;;;;5055715;28;20163;-71
2022/06/04 10:05:04;;;;;;;5.07;2.40;;;22.20;46.40;21.10;101706.00;;;;5044396;28;20348;-73
2022/06/04 10:07:50;;;;;;;3.53;2.30;;;22.20;46.40;21.10;101711.00;;;;5026464;28;20052;-73
2022/06/04 10:10:41;;;;;;;4.45;2.15;;;22.20;46.40;21.10;101705.00;;;;5040935;28;20049;-73
2022/06/04 10:13:42;;;;;;;5.72;2.25;;;22.20;46.50;21.10;101704.00;;;;5040221;28;20449;-73
2022/06/04 10:16:44;;;;;;;2.70;2.13;;;22.20;46.50;21.10;101696.00;;;;5037621;28;20187;-73
2022/06/04 10:19:30;;;;;;;4.60;2.20;;;22.20;46.50;21.10;101683.00;;;;5032081;28;20498;-73
2022/06/04 10:22:17;;;;;;;4.25;2.20;;;22.20;46.40;21.20;101702.00;;;;5051021;28;20191;-73
2022/06/04 10:25:03;;;;;;;5.13;2.28;;;22.20;46.50;21.20;101697.00;;;;5044343;28;20420;-74
2022/06/04 10:28:15;;;;;;;4.00;2.28;;;22.20;46.50;21.20;101699.00;;;;5035872;28;20045;-75
2022/06/04 10:31:36;;;;;;;1.85;1.65;;;22.20;46.60;21.10;101701.00;;;;5055852;28;20052;-71
2022/06/04 10:34:47;;;;;;;4.13;2.10;;;22.20;46.60;21.10;101694.00;;;;5057908;28;20059;-71
2022/06/04 10:37:45;;;;;;;4.22;2.35;;;22.20;46.60;21.10;101698.00;;;;5044052;28;20103;-71
2022/06/04 10:41:06;;;;;;;4.68;1.98;;;22.20;46.70;21.10;101698.00;;;;5037535;28;20629;-71
2022/06/04 10:44:18;;;;;;;6.40;2.40;;;22.20;46.50;21.10;101692.00;;;;5048876;28;20048;-71
2022/06/04 10:47:08;;;;;;;10.70;2.83;;;22.20;46.50;21.10;101691.00;;;;5040914;28;20140;-71
2022/06/04 10:50:11;;;;;;;21.88;4.10;;;22.20;46.50;21.10;101694.00;;;;5045552;28;20037;-71
2022/06/04 10:53:28;;;;;;;18.27;3.67;;;22.30;46.60;21.10;101701.00;;;;5030452;28;20059;-71
2022/06/04 10:56:18;;;;;;;9.77;2.85;;;22.20;46.50;21.10;101706.00;;;;5025490;28;20048;-71
2022/06/04 10:59:48;;;;;;;17.33;3.00;;;22.20;46.60;21.20;101699.00;;;;5046520;28;20055;-71
2022/06/04 11:02:50;;;;;;;9.30;3.05;;;22.20;46.70;21.20;101686.00;;;;4968060;28;20038;-71
2022/06/04 11:05:42;;;;;;;14.52;4.50;;;22.30;46.80;21.20;101694.00;;;;5027119;28;20033;-71
2022/06/04 11:08:48;;;;;;;15.55;3.08;;;22.30;46.70;21.20;101679.00;;;;5047272;28;20613;-71
2022/06/04 11:11:48;;;;;;;12.63;3.17;;;22.30;46.70;21.20;101685.00;;;;5039670;28;20060;-71
2022/06/04 11:14:42;;;;;;;5.18;2.50;;;22.30;46.60;21.20;101682.00;;;;5035256;28;20111;-71
2022/06/04 11:17:45;;;;;;;9.13;3.30;;;22.30;46.70;21.20;101681.00;;;;5043464;28;20056;-71
2022/06/04 11:20:35;;;;;;;10.02;3.60;;;22.30;46.60;21.20;101680.00;;;;5054321;28;20052;-71
2022/06/04 11:23:43;;;;;;;9.98;3.53;;;22.30;46.60;21.20;101682.00;;;;5044719;28;20048;-71
2022/06/04 11:26:42;;;;;;;6.88;2.55;;;22.30;46.70;21.20;101684.00;;;;5034001;28;20076;-71
2022/06/04 11:29:28;;;;;;;4.20;2.50;;;22.40;46.60;21.20;101691.00;;;;5047905;28;20045;-71
2022/06/04 11:32:32;;;;;;;4.80;2.40;;;22.40;46.60;21.20;101688.00;;;;5053859;28;20044;-71
2022/06/04 11:35:42;;;;;;;4.30;2.72;;;22.40;46.60;21.20;101690.00;;;;5032054;28;20158;-71
2022/06/04 11:38:58;;;;;;;5.10;2.60;;;22.40;46.60;21.20;101685.00;;;;5054633;28;20465;-71
2022/06/04 11:42:30;;;;;;;5.38;2.42;;;22.40;46.60;21.20;101695.00;;;;5044240;28;20044;-71
2022/06/04 11:45:25;;;;;;;9.10;2.92;;;22.40;46.60;21.20;101686.00;;;;5009258;28;20124;-71
2022/06/04 11:48:54;;;;;;;9.48;3.13;;;22.40;46.60;21.30;101682.00;;;;5043642;28;20040;-71
2022/06/04 11:51:59;;;;;;;21.77;3.20;;;22.40;46.60;21.30;101687.00;;;;5021789;28;20044;-71
2022/06/04 11:55:21;;;;;;;6.70;2.58;;;22.40;46.60;21.30;101691.00;;;;5059763;28;20049;-71
2022/06/04 11:58:10;;;;;;;16.08;3.42;;;22.40;46.60;21.30;101696.00;;;;5044492;28;20056;-71
2022/06/04 12:01:03;;;;;;;9.02;2.67;;;22.40;46.60;21.30;101686.00;;;;5044609;28;20095;-71
2022/06/04 12:03:56;;;;;;;14.07;3.72;;;22.50;46.80;21.30;101688.00;;;;5048056;28;20045;-71
2022/06/04 12:07:07;;;;;;;25.58;5.35;;;22.50;46.70;21.30;101694.00;;;;5042118;28;20226;-71
2022/06/04 12:10:40;;;;;;;15.50;5.32;;;22.50;47.40;21.30;101692.00;;;;5050835;28;20312;-71
2022/06/04 12:13:59;;;;;;;15.75;4.93;;;22.40;46.70;21.30;101702.00;;;;5058797;28;20036;-71
2022/06/04 12:17:10;;;;;;;10.57;4.73;;;22.50;46.70;21.30;101701.00;;;;5058283;28;20041;-71
2022/06/04 12:27:21;;;;;;;8.85;4.25;;;22.50;46.80;21.30;101696.00;;;;5046370;28;20036;-71
2022/06/04 12:30:17;;;;;;;5.18;3.60;;;22.50;46.80;21.30;101686.00;;;;5047546;28;20055;-71
2022/06/04 12:33:26;;;;;;;6.78;3.47;;;22.50;46.80;21.30;101697.00;;;;5014595;28;20045;-71
2022/06/04 12:36:34;;;;;;;5.70;3.25;;;22.50;46.70;21.40;101688.00;;;;5031513;28;20251;-70
2022/06/04 12:39:37;;;;;;;8.13;3.63;;;22.60;46.80;21.40;101700.00;;;;5049885;28;20041;-70
2022/06/04 12:42:25;;;;;;;7.90;3.42;;;22.60;46.80;21.40;101687.00;;;;5030730;28;20068;-71
2022/06/04 12:45:38;;;;;;;6.57;3.47;;;22.50;46.70;21.40;101694.00;;;;5028580;28;20037;-71
2022/06/04 12:48:37;;;;;;;4.18;3.00;;;22.50;46.80;21.40;101687.00;;;;5043438;28;20053;-71
2022/06/04 12:52:07;;;;;;;3.85;2.60;;;22.60;46.80;21.40;101690.00;;;;5053047;28;20067;-71
2022/06/04 12:55:07;;;;;;;5.75;2.50;;;22.60;46.80;21.40;101688.00;;;;5041652;28;20315;-71
2022/06/04 12:58:03;;;;;;;6.28;3.10;;;22.60;46.80;21.40;101692.00;;;;5028700;28;20068;-71
2022/06/04 13:01:12;;;;;;;18.98;3.83;;;22.60;46.70;21.40;101689.00;;;;5038639;28;20037;-71
2022/06/04 13:04:10;;;;;;;3.53;3.10;;;22.60;46.70;21.40;101696.00;;;;5049962;28;20121;-71